sensor_id;sensor_type;location;lat;lon;timestamp;temperature;humidity
38746;DHT22;24488;0.000;0.000;2023-08-24T00:01:06;24.50;67.80
38746;DHT22;24488;0.000;0.000;2023-08-24T00:03:33;25.00;68.10
38746;DHT22;24488;0.000;0.000;2023-08-24T00:05:58;24.70;67.90
38746;DHT22;24488;0.000;0.000;2023-08-24T00:08:24;24.60;67.80
38746;DHT22;24488;0.000;0.000;2023-08-24T00:10:49;24.70;67.80
38746;DHT22;24488;0.000;0.000;2023-08-24T00:13:15;24.50;68.40
38746;DHT22;24488;0.000;0.000;2023-08-24T00:15:41;24.60;67.80
38746;DHT22;24488;0.000;0.000;2023-08-24T00:18:07;24.50;67.70
38746;DHT22;24488;0.000;0.000;2023-08-24T00:20:33;24.50;68.40
38746;DHT22;24488;0.000;0.000;2023-08-24T00:22:59;24.50;67.70
38746;DHT22;24488;0.000;0.000;2023-08-24T00:25:25;24.50;67.60
38746;DHT22;24488;0.000;0.000;2023-08-24T00:27:52;24.60;67.70
38746;DHT22;24488;0.000;0.000;2023-08-24T00:30:18;23.70;67.30
38746;DHT22;24488;0.000;0.000;2023-08-24T00:32:44;24.50;67.10
38746;DHT22;24488;0.000;0.000;2023-08-24T00:35:09;24.00;67.40
38746;DHT22;24488;0.000;0.000;2023-08-24T00:37:36;24.50;67.70
38746;DHT22;24488;0.000;0.000;2023-08-24T00:40:02;24.60;67.70
38746;DHT22;24488;0.000;0.000;2023-08-24T00:42:30;24.50;67.80
38746;DHT22;24488;0.000;0.000;2023-08-24T00:44:57;24.50;67.70
38746;DHT22;24488;0.000;0.000;2023-08-24T00:47:23;24.60;67.70
38746;DHT22;24488;0.000;0.000;2023-08-24T00:49:49;24.60;67.70
38746;DHT22;24488;0.000;0.000;2023-08-24T00:52:14;24.50;67.60
38746;DHT22;24488;0.000;0.000;2023-08-24T00:54:40;24.50;67.70
38746;DHT22;24488;0.000;0.000;2023-08-24T00:57:06;24.50;67.70
38746;DHT22;24488;0.000;0.000;2023-08-24T00:59:32;24.60;67.70
38746;DHT22;24488;0.000;0.000;2023-08-24T01:01:58;24.50;67.60
38746;DHT22;24488;0.000;0.000;2023-08-24T01:04:24;24.60;67.70
38746;DHT22;24488;0.000;0.000;2023-08-24T01:06:50;24.50;67.60
38746;DHT22;24488;0.000;0.000;2023-08-24T01:09:16;24.60;67.70
38746;DHT22;24488;0.000;0.000;2023-08-24T01:17:07;24.50;67.60
38746;DHT22;24488;0.000;0.000;2023-08-24T01:19:38;24.40;67.60
38746;DHT22;24488;0.000;0.000;2023-08-24T01:22:07;24.50;67.60
38746;DHT22;24488;0.000;0.000;2023-08-24T01:24:47;24.50;67.60
38746;DHT22;24488;0.000;0.000;2023-08-24T01:27:19;24.50;67.70
38746;DHT22;24488;0.000;0.000;2023-08-24T01:29:46;24.50;67.60
38746;DHT22;24488;0.000;0.000;2023-08-24T01:32:12;24.50;67.60
38746;DHT22;24488;0.000;0.000;2023-08-24T01:34:38;24.60;67.70
38746;DHT22;24488;0.000;0.000;2023-08-24T01:37:06;24.50;67.70
38746;DHT22;24488;0.000;0.000;2023-08-24T01:39:54;24.50;67.60
38746;DHT22;24488;0.000;0.000;2023-08-24T01:45:18;24.50;67.60
38746;DHT22;24488;0.000;0.000;2023-08-24T01:47:45;24.50;67.50
38746;DHT22;24488;0.000;0.000;2023-08-24T01:50:11;24.60;67.60
38746;DHT22;24488;0.000;0.000;2023-08-24T01:52:37;24.50;67.50
38746;DHT22;24488;0.000;0.000;2023-08-24T01:55:02;24.60;67.60
38746;DHT22;24488;0.000;0.000;2023-08-24T01:57:28;24.50;67.60
38746;DHT22;24488;0.000;0.000;2023-08-24T01:59:54;24.40;67.60
38746;DHT22;24488;0.000;0.000;2023-08-24T02:02:20;24.50;67.60
38746;DHT22;24488;0.000;0.000;2023-08-24T02:04:46;24.50;67.60
38746;DHT22;24488;0.000;0.000;2023-08-24T02:07:11;24.50;67.70
38746;DHT22;24488;0.000;0.000;2023-08-24T02:09:37;24.50;67.60
38746;DHT22;24488;0.000;0.000;2023-08-24T02:12:02;24.50;67.70
38746;DHT22;24488;0.000;0.000;2023-08-24T02:14:28;24.50;67.60
38746;DHT22;24488;0.000;0.000;2023-08-24T02:16:54;24.50;67.60
38746;DHT22;24488;0.000;0.000;2023-08-24T02:19:19;24.60;67.70
38746;DHT22;24488;0.000;0.000;2023-08-24T02:21:45;24.50;67.60
38746;DHT22;24488;0.000;0.000;2023-08-24T02:24:11;24.50;67.60
38746;DHT22;24488;0.000;0.000;2023-08-24T02:26:36;24.60;67.60
38746;DHT22;24488;0.000;0.000;2023-08-24T02:29:02;24.50;67.60
38746;DHT22;24488;0.000;0.000;2023-08-24T02:31:27;24.50;67.60
38746;DHT22;24488;0.000;0.000;2023-08-24T02:33:53;24.60;67.70
38746;DHT22;24488;0.000;0.000;2023-08-24T02:36:19;24.50;67.70
38746;DHT22;24488;0.000;0.000;2023-08-24T02:38:45;24.60;67.70
38746;DHT22;24488;0.000;0.000;2023-08-24T02:41:10;24.60;67.60
38746;DHT22;24488;0.000;0.000;2023-08-24T02:43:36;24.40;67.50
38746;DHT22;24488;0.000;0.000;2023-08-24T02:46:06;24.50;67.60
38746;DHT22;24488;0.000;0.000;2023-08-24T02:48:32;24.50;67.70
38746;DHT22;24488;0.000;0.000;2023-08-24T02:50:58;24.60;67.60
38746;DHT22;24488;0.000;0.000;2023-08-24T02:53:25;24.50;67.60
38746;DHT22;24488;0.000;0.000;2023-08-24T02:55:51;24.50;67.60
38746;DHT22;24488;0.000;0.000;2023-08-24T02:58:16;24.50;67.60
38746;DHT22;24488;0.000;0.000;2023-08-24T03:00:42;24.50;67.60
38746;DHT22;24488;0.000;0.000;2023-08-24T03:03:07;24.50;67.70
38746;DHT22;24488;0.000;0.000;2023-08-24T03:05:33;24.50;67.70
38746;DHT22;24488;0.000;0.000;2023-08-24T03:07:59;24.50;67.60
38746;DHT22;24488;0.000;0.000;2023-08-24T03:10:24;24.50;67.60
38746;DHT22;24488;0.000;0.000;2023-08-24T03:12:50;24.60;67.70
38746;DHT22;24488;0.000;0.000;2023-08-24T03:15:16;24.50;67.70
38746;DHT22;24488;0.000;0.000;2023-08-24T03:17:41;24.50;67.60
38746;DHT22;24488;0.000;0.000;2023-08-24T03:20:07;24.50;67.60
38746;DHT22;24488;0.000;0.000;2023-08-24T03:22:33;24.50;67.60
38746;DHT22;24488;0.000;0.000;2023-08-24T03:24:59;24.50;67.60
38746;DHT22;24488;0.000;0.000;2023-08-24T03:27:25;24.50;67.60
38746;DHT22;24488;0.000;0.000;2023-08-24T03:29:51;24.60;67.70
38746;DHT22;24488;0.000;0.000;2023-08-24T03:32:18;24.60;67.70
38746;DHT22;24488;0.000;0.000;2023-08-24T03:34:44;24.50;67.60
38746;DHT22;24488;0.000;0.000;2023-08-24T03:37:09;24.60;67.60
38746;DHT22;24488;0.000;0.000;2023-08-24T03:39:38;24.50;67.60
38746;DHT22;24488;0.000;0.000;2023-08-24T03:42:04;24.50;67.50
38746;DHT22;24488;0.000;0.000;2023-08-24T03:44:29;24.50;67.60
38746;DHT22;24488;0.000;0.000;2023-08-24T03:46:55;24.50;67.60
38746;DHT22;24488;0.000;0.000;2023-08-24T03:49:20;24.50;67.60
38746;DHT22;24488;0.000;0.000;2023-08-24T03:51:46;24.50;68.30
38746;DHT22;24488;0.000;0.000;2023-08-24T03:54:12;24.40;67.60
38746;DHT22;24488;0.000;0.000;2023-08-24T03:56:38;24.50;67.60
38746;DHT22;24488;0.000;0.000;2023-08-24T03:59:04;24.50;68.30
38746;DHT22;24488;0.000;0.000;2023-08-24T04:01:30;24.50;67.60
38746;DHT22;24488;0.000;0.000;2023-08-24T04:03:55;24.50;67.60
38746;DHT22;24488;0.000;0.000;2023-08-24T04:06:21;24.50;67.60
38746;DHT22;24488;0.000;0.000;2023-08-24T04:08:46;24.50;67.70
38746;DHT22;24488;0.000;0.000;2023-08-24T04:11:12;24.50;67.60
38746;DHT22;24488;0.000;0.000;2023-08-24T04:13:37;24.60;67.70
38746;DHT22;24488;0.000;0.000;2023-08-24T04:16:03;24.60;67.70
38746;DHT22;24488;0.000;0.000;2023-08-24T04:18:29;24.40;67.60
38746;DHT22;24488;0.000;0.000;2023-08-24T04:20:55;24.50;67.60
38746;DHT22;24488;0.000;0.000;2023-08-24T04:23:24;24.60;67.80
38746;DHT22;24488;0.000;0.000;2023-08-24T04:25:50;24.50;67.60
38746;DHT22;24488;0.000;0.000;2023-08-24T04:28:16;24.50;67.60
38746;DHT22;24488;0.000;0.000;2023-08-24T04:30:48;24.60;67.70
38746;DHT22;24488;0.000;0.000;2023-08-24T04:33:20;24.50;67.60
38746;DHT22;24488;0.000;0.000;2023-08-24T04:35:49;24.50;67.60
38746;DHT22;24488;0.000;0.000;2023-08-24T04:38:18;24.60;66.80
38746;DHT22;24488;0.000;0.000;2023-08-24T04:40:48;24.60;66.90
38746;DHT22;24488;0.000;0.000;2023-08-24T04:43:18;24.60;67.20
38746;DHT22;24488;0.000;0.000;2023-08-24T04:45:46;24.50;67.40
38746;DHT22;24488;0.000;0.000;2023-08-24T04:48:13;24.50;67.50
38746;DHT22;24488;0.000;0.000;2023-08-24T04:50:41;24.50;67.60
38746;DHT22;24488;0.000;0.000;2023-08-24T04:53:08;24.50;67.50
38746;DHT22;24488;0.000;0.000;2023-08-24T04:55:34;24.60;67.60
38746;DHT22;24488;0.000;0.000;2023-08-24T04:57:59;24.50;67.60
38746;DHT22;24488;0.000;0.000;2023-08-24T05:00:25;24.50;67.60
38746;DHT22;24488;0.000;0.000;2023-08-24T05:02:51;24.60;67.70
38746;DHT22;24488;0.000;0.000;2023-08-24T05:05:16;24.50;67.60
38746;DHT22;24488;0.000;0.000;2023-08-24T05:07:42;24.50;67.60
38746;DHT22;24488;0.000;0.000;2023-08-24T05:10:08;24.50;68.30
38746;DHT22;24488;0.000;0.000;2023-08-24T05:12:33;24.50;67.50
38746;DHT22;24488;0.000;0.000;2023-08-24T05:15:01;24.50;67.60
38746;DHT22;24488;0.000;0.000;2023-08-24T05:17:27;24.50;67.60
38746;DHT22;24488;0.000;0.000;2023-08-24T05:19:53;24.50;67.60
38746;DHT22;24488;0.000;0.000;2023-08-24T05:22:19;24.50;67.50
38746;DHT22;24488;0.000;0.000;2023-08-24T05:24:45;24.50;67.60
38746;DHT22;24488;0.000;0.000;2023-08-24T05:27:11;24.50;67.60
38746;DHT22;24488;0.000;0.000;2023-08-24T05:29:37;24.50;67.60
38746;DHT22;24488;0.000;0.000;2023-08-24T05:32:02;24.50;67.60
38746;DHT22;24488;0.000;0.000;2023-08-24T05:34:28;24.50;67.60
38746;DHT22;24488;0.000;0.000;2023-08-24T05:36:54;24.50;67.60
38746;DHT22;24488;0.000;0.000;2023-08-24T05:39:19;24.50;67.60
38746;DHT22;24488;0.000;0.000;2023-08-24T05:41:45;24.50;67.60
38746;DHT22;24488;0.000;0.000;2023-08-24T05:44:10;24.50;67.50
38746;DHT22;24488;0.000;0.000;2023-08-24T05:46:36;24.50;67.50
38746;DHT22;24488;0.000;0.000;2023-08-24T05:49:01;24.50;67.60
38746;DHT22;24488;0.000;0.000;2023-08-24T05:51:27;24.50;67.60
38746;DHT22;24488;0.000;0.000;2023-08-24T05:53:53;24.50;67.50
38746;DHT22;24488;0.000;0.000;2023-08-24T05:56:23;24.60;67.60
38746;DHT22;24488;0.000;0.000;2023-08-24T05:58:49;24.50;67.50
38746;DHT22;24488;0.000;0.000;2023-08-24T06:01:15;24.60;67.60
38746;DHT22;24488;0.000;0.000;2023-08-24T06:03:41;24.50;67.60
38746;DHT22;24488;0.000;0.000;2023-08-24T06:06:06;24.50;67.50
38746;DHT22;24488;0.000;0.000;2023-08-24T06:08:34;24.50;67.50
38746;DHT22;24488;0.000;0.000;2023-08-24T06:11:00;24.50;67.50
38746;DHT22;24488;0.000;0.000;2023-08-24T06:13:25;24.50;67.50
38746;DHT22;24488;0.000;0.000;2023-08-24T06:15:51;24.50;67.50
38746;DHT22;24488;0.000;0.000;2023-08-24T06:18:17;24.50;67.50
38746;DHT22;24488;0.000;0.000;2023-08-24T06:20:43;24.50;67.50
38746;DHT22;24488;0.000;0.000;2023-08-24T06:23:08;24.50;67.50
38746;DHT22;24488;0.000;0.000;2023-08-24T06:25:35;24.50;67.50
38746;DHT22;24488;0.000;0.000;2023-08-24T06:28:00;24.50;67.50
38746;DHT22;24488;0.000;0.000;2023-08-24T06:30:29;24.50;67.50
38746;DHT22;24488;0.000;0.000;2023-08-24T06:32:58;24.50;67.50
38746;DHT22;24488;0.000;0.000;2023-08-24T06:35:24;24.60;67.60
38746;DHT22;24488;0.000;0.000;2023-08-24T06:37:49;24.50;67.50
38746;DHT22;24488;0.000;0.000;2023-08-24T06:40:15;24.40;67.40
38746;DHT22;24488;0.000;0.000;2023-08-24T06:42:42;24.50;67.60
38746;DHT22;24488;0.000;0.000;2023-08-24T06:45:08;24.50;67.50
38746;DHT22;24488;0.000;0.000;2023-08-24T06:47:35;24.50;67.50
38746;DHT22;24488;0.000;0.000;2023-08-24T06:50:00;24.40;67.40
38746;DHT22;24488;0.000;0.000;2023-08-24T06:52:26;24.50;68.20
38746;DHT22;24488;0.000;0.000;2023-08-24T06:54:52;24.50;67.50
38746;DHT22;24488;0.000;0.000;2023-08-24T06:57:20;24.60;67.50
38746;DHT22;24488;0.000;0.000;2023-08-24T06:59:46;24.50;67.50
38746;DHT22;24488;0.000;0.000;2023-08-24T07:02:11;24.50;67.50
38746;DHT22;24488;0.000;0.000;2023-08-24T07:04:37;24.40;67.40
38746;DHT22;24488;0.000;0.000;2023-08-24T07:07:05;24.50;67.50
38746;DHT22;24488;0.000;0.000;2023-08-24T07:09:34;24.50;67.50
38746;DHT22;24488;0.000;0.000;2023-08-24T07:12:01;24.50;67.40
38746;DHT22;24488;0.000;0.000;2023-08-24T07:14:27;24.50;67.50
38746;DHT22;24488;0.000;0.000;2023-08-24T07:16:53;24.40;67.40
38746;DHT22;24488;0.000;0.000;2023-08-24T07:19:18;24.40;67.40
38746;DHT22;24488;0.000;0.000;2023-08-24T07:21:44;24.50;67.40
38746;DHT22;24488;0.000;0.000;2023-08-24T07:24:09;24.50;67.40
38746;DHT22;24488;0.000;0.000;2023-08-24T07:26:35;24.40;67.40
38746;DHT22;24488;0.000;0.000;2023-08-24T07:29:00;24.50;67.40
38746;DHT22;24488;0.000;0.000;2023-08-24T07:31:26;24.50;67.40
38746;DHT22;24488;0.000;0.000;2023-08-24T07:33:52;24.50;67.50
38746;DHT22;24488;0.000;0.000;2023-08-24T07:36:17;24.50;67.40
38746;DHT22;24488;0.000;0.000;2023-08-24T07:38:44;24.50;67.40
38746;DHT22;24488;0.000;0.000;2023-08-24T07:41:11;24.40;67.50
38746;DHT22;24488;0.000;0.000;2023-08-24T07:43:37;24.50;67.40
38746;DHT22;24488;0.000;0.000;2023-08-24T07:46:03;24.40;67.30
38746;DHT22;24488;0.000;0.000;2023-08-24T07:48:29;24.40;67.40
38746;DHT22;24488;0.000;0.000;2023-08-24T07:50:55;24.40;67.40
38746;DHT22;24488;0.000;0.000;2023-08-24T07:53:20;24.50;67.50
38746;DHT22;24488;0.000;0.000;2023-08-24T07:55:46;24.40;67.40
38746;DHT22;24488;0.000;0.000;2023-08-24T07:58:12;24.40;67.40
38746;DHT22;24488;0.000;0.000;2023-08-24T08:00:38;24.40;67.30
38746;DHT22;24488;0.000;0.000;2023-08-24T08:03:04;24.50;67.50
38746;DHT22;24488;0.000;0.000;2023-08-24T08:05:29;24.40;67.30
38746;DHT22;24488;0.000;0.000;2023-08-24T08:07:55;24.50;67.40
38746;DHT22;24488;0.000;0.000;2023-08-24T08:10:21;24.50;67.40
38746;DHT22;24488;0.000;0.000;2023-08-24T08:12:47;24.40;67.30
38746;DHT22;24488;0.000;0.000;2023-08-24T08:15:12;24.50;67.40
38746;DHT22;24488;0.000;0.000;2023-08-24T08:17:38;24.60;67.40
38746;DHT22;24488;0.000;0.000;2023-08-24T08:20:03;24.40;67.30
38746;DHT22;24488;0.000;0.000;2023-08-24T08:22:29;24.50;67.30
38746;DHT22;24488;0.000;0.000;2023-08-24T08:25:00;24.40;67.30
38746;DHT22;24488;0.000;0.000;2023-08-24T08:27:27;24.40;67.30
38746;DHT22;24488;0.000;0.000;2023-08-24T08:29:52;24.50;67.40
38746;DHT22;24488;0.000;0.000;2023-08-24T08:32:18;24.40;67.30
38746;DHT22;24488;0.000;0.000;2023-08-24T08:34:43;24.50;67.30
38746;DHT22;24488;0.000;0.000;2023-08-24T08:37:09;24.40;67.30
38746;DHT22;24488;0.000;0.000;2023-08-24T08:39:34;24.40;67.30
38746;DHT22;24488;0.000;0.000;2023-08-24T08:42:00;24.40;67.30
38746;DHT22;24488;0.000;0.000;2023-08-24T08:44:29;24.50;67.30
38746;DHT22;24488;0.000;0.000;2023-08-24T08:46:56;24.40;67.20
38746;DHT22;24488;0.000;0.000;2023-08-24T08:49:22;24.40;67.30
38746;DHT22;24488;0.000;0.000;2023-08-24T08:51:48;24.40;67.40
38746;DHT22;24488;0.000;0.000;2023-08-24T08:54:13;24.50;67.30
38746;DHT22;24488;0.000;0.000;2023-08-24T08:56:39;24.50;67.40
38746;DHT22;24488;0.000;0.000;2023-08-24T08:59:06;24.40;67.20
38746;DHT22;24488;0.000;0.000;2023-08-24T09:01:32;24.50;67.30
38746;DHT22;24488;0.000;0.000;2023-08-24T09:03:59;24.50;67.30
38746;DHT22;24488;0.000;0.000;2023-08-24T09:06:25;24.50;67.30
38746;DHT22;24488;0.000;0.000;2023-08-24T09:08:51;24.50;67.30
38746;DHT22;24488;0.000;0.000;2023-08-24T09:11:17;24.50;67.30
38746;DHT22;24488;0.000;0.000;2023-08-24T09:13:44;24.40;67.30
38746;DHT22;24488;0.000;0.000;2023-08-24T09:16:10;24.50;67.30
38746;DHT22;24488;0.000;0.000;2023-08-24T09:18:41;24.50;67.30
38746;DHT22;24488;0.000;0.000;2023-08-24T09:21:09;24.50;67.30
38746;DHT22;24488;0.000;0.000;2023-08-24T09:26:03;24.50;67.30
38746;DHT22;24488;0.000;0.000;2023-08-24T09:28:30;24.50;67.40
38746;DHT22;24488;0.000;0.000;2023-08-24T09:30:56;24.50;67.30
38746;DHT22;24488;0.000;0.000;2023-08-24T09:33:25;24.40;67.30
38746;DHT22;24488;0.000;0.000;2023-08-24T09:35:54;24.40;67.30
38746;DHT22;24488;0.000;0.000;2023-08-24T09:38:23;24.40;67.20
38746;DHT22;24488;0.000;0.000;2023-08-24T09:40:52;24.50;67.30
38746;DHT22;24488;0.000;0.000;2023-08-24T09:43:19;24.40;67.20
38746;DHT22;24488;0.000;0.000;2023-08-24T09:48:17;24.50;67.40
38746;DHT22;24488;0.000;0.000;2023-08-24T09:50:46;24.40;67.20
38746;DHT22;24488;0.000;0.000;2023-08-24T09:53:17;24.50;67.30
38746;DHT22;24488;0.000;0.000;2023-08-24T09:55:46;24.40;67.20
38746;DHT22;24488;0.000;0.000;2023-08-24T09:58:24;24.40;67.20
38746;DHT22;24488;0.000;0.000;2023-08-24T10:00:50;24.40;67.30
38746;DHT22;24488;0.000;0.000;2023-08-24T10:03:16;24.40;67.20
38746;DHT22;24488;0.000;0.000;2023-08-24T10:05:50;24.40;67.20
38746;DHT22;24488;0.000;0.000;2023-08-24T10:08:20;24.40;67.20
38746;DHT22;24488;0.000;0.000;2023-08-24T10:10:52;24.40;67.20
38746;DHT22;24488;0.000;0.000;2023-08-24T10:13:20;24.40;67.20
38746;DHT22;24488;0.000;0.000;2023-08-24T10:15:49;24.40;67.20
38746;DHT22;24488;0.000;0.000;2023-08-24T10:18:15;24.50;67.40
38746;DHT22;24488;0.000;0.000;2023-08-24T10:20:41;24.40;67.20
38746;DHT22;24488;0.000;0.000;2023-08-24T10:23:08;24.40;67.20
38746;DHT22;24488;0.000;0.000;2023-08-24T10:25:35;24.50;67.30
38746;DHT22;24488;0.000;0.000;2023-08-24T10:28:01;24.50;67.30
38746;DHT22;24488;0.000;0.000;2023-08-24T10:30:28;24.40;67.20
38746;DHT22;24488;0.000;0.000;2023-08-24T10:32:56;24.40;67.20
38746;DHT22;24488;0.000;0.000;2023-08-24T10:35:22;24.40;67.20
38746;DHT22;24488;0.000;0.000;2023-08-24T10:37:51;24.50;67.30
38746;DHT22;24488;0.000;0.000;2023-08-24T10:40:30;24.60;67.30
38746;DHT22;24488;0.000;0.000;2023-08-24T10:43:03;24.40;67.20
38746;DHT22;24488;0.000;0.000;2023-08-24T10:48:24;24.50;67.20
38746;DHT22;24488;0.000;0.000;2023-08-24T10:53:52;24.40;67.30
38746;DHT22;24488;0.000;0.000;2023-08-24T10:56:18;24.40;67.20
38746;DHT22;24488;0.000;0.000;2023-08-24T10:58:45;24.40;67.20
38746;DHT22;24488;0.000;0.000;2023-08-24T11:01:18;24.50;67.30
38746;DHT22;24488;0.000;0.000;2023-08-24T11:03:50;24.40;67.20
38746;DHT22;24488;0.000;0.000;2023-08-24T11:06:23;24.40;67.20
38746;DHT22;24488;0.000;0.000;2023-08-24T11:09:04;24.50;67.30
38746;DHT22;24488;0.000;0.000;2023-08-24T11:11:39;24.50;66.60
38746;DHT22;24488;0.000;0.000;2023-08-24T11:16:45;24.50;67.20
38746;DHT22;24488;0.000;0.000;2023-08-24T11:19:11;24.40;67.20
38746;DHT22;24488;0.000;0.000;2023-08-24T11:21:40;24.60;67.30
38746;DHT22;24488;0.000;0.000;2023-08-24T11:24:07;24.40;67.20
38746;DHT22;24488;0.000;0.000;2023-08-24T11:26:34;24.50;67.20
38746;DHT22;24488;0.000;0.000;2023-08-24T11:29:04;24.50;67.20
38746;DHT22;24488;0.000;0.000;2023-08-24T11:31:30;24.40;67.10
38746;DHT22;24488;0.000;0.000;2023-08-24T11:33:55;24.50;67.20
38746;DHT22;24488;0.000;0.000;2023-08-24T11:36:21;24.50;67.20
38746;DHT22;24488;0.000;0.000;2023-08-24T11:38:49;24.50;67.20
38746;DHT22;24488;0.000;0.000;2023-08-24T11:41:17;24.50;67.20
38746;DHT22;24488;0.000;0.000;2023-08-24T11:43:43;24.40;67.20
38746;DHT22;24488;0.000;0.000;2023-08-24T11:46:10;24.40;67.30
38746;DHT22;24488;0.000;0.000;2023-08-24T11:48:37;24.50;67.20
38746;DHT22;24488;0.000;0.000;2023-08-24T11:51:07;24.30;67.10
38746;DHT22;24488;0.000;0.000;2023-08-24T11:53:36;24.50;67.20
38746;DHT22;24488;0.000;0.000;2023-08-24T11:56:02;24.50;67.30
38746;DHT22;24488;0.000;0.000;2023-08-24T11:58:28;24.40;67.10
38746;DHT22;24488;0.000;0.000;2023-08-24T12:00:53;24.40;67.30
38746;DHT22;24488;0.000;0.000;2023-08-24T12:03:19;24.50;67.20
38746;DHT22;24488;0.000;0.000;2023-08-24T12:05:44;24.40;67.10
38746;DHT22;24488;0.000;0.000;2023-08-24T12:08:11;24.50;67.30
38746;DHT22;24488;0.000;0.000;2023-08-24T12:10:41;24.40;67.20
38746;DHT22;24488;0.000;0.000;2023-08-24T12:13:07;24.50;67.20
38746;DHT22;24488;0.000;0.000;2023-08-24T12:15:34;24.50;67.90
38746;DHT22;24488;0.000;0.000;2023-08-24T12:18:13;24.50;67.30
38746;DHT22;24488;0.000;0.000;2023-08-24T12:20:40;24.50;67.30
38746;DHT22;24488;0.000;0.000;2023-08-24T12:23:06;24.40;67.10
38746;DHT22;24488;0.000;0.000;2023-08-24T12:25:35;24.40;67.10
38746;DHT22;24488;0.000;0.000;2023-08-24T12:28:09;24.40;67.10
38746;DHT22;24488;0.000;0.000;2023-08-24T12:30:45;24.40;67.20
38746;DHT22;24488;0.000;0.000;2023-08-24T12:33:24;24.40;67.10
38746;DHT22;24488;0.000;0.000;2023-08-24T12:35:50;24.50;67.30
38746;DHT22;24488;0.000;0.000;2023-08-24T12:38:16;24.50;67.20
38746;DHT22;24488;0.000;0.000;2023-08-24T12:40:42;24.40;67.20
38746;DHT22;24488;0.000;0.000;2023-08-24T12:43:07;24.50;67.30
38746;DHT22;24488;0.000;0.000;2023-08-24T12:45:33;24.40;67.10
38746;DHT22;24488;0.000;0.000;2023-08-24T12:47:59;24.40;67.20
38746;DHT22;24488;0.000;0.000;2023-08-24T12:50:24;24.50;67.20
38746;DHT22;24488;0.000;0.000;2023-08-24T12:52:50;24.50;67.20
38746;DHT22;24488;0.000;0.000;2023-08-24T12:55:20;24.40;67.10
38746;DHT22;24488;0.000;0.000;2023-08-24T12:57:46;24.50;67.20
38746;DHT22;24488;0.000;0.000;2023-08-24T13:00:12;24.50;67.20
38746;DHT22;24488;0.000;0.000;2023-08-24T13:02:39;24.50;67.30
38746;DHT22;24488;0.000;0.000;2023-08-24T13:05:04;24.50;67.20
38746;DHT22;24488;0.000;0.000;2023-08-24T13:07:31;24.50;67.20
38746;DHT22;24488;0.000;0.000;2023-08-24T13:09:56;24.40;67.10
38746;DHT22;24488;0.000;0.000;2023-08-24T13:12:23;24.50;67.20
38746;DHT22;24488;0.000;0.000;2023-08-24T13:14:49;24.50;67.30
38746;DHT22;24488;0.000;0.000;2023-08-24T13:17:15;24.40;67.20
38746;DHT22;24488;0.000;0.000;2023-08-24T13:19:40;24.50;67.30
38746;DHT22;24488;0.000;0.000;2023-08-24T13:22:06;24.40;67.20
38746;DHT22;24488;0.000;0.000;2023-08-24T13:24:33;24.40;67.10
38746;DHT22;24488;0.000;0.000;2023-08-24T13:26:59;24.50;67.20
38746;DHT22;24488;0.000;0.000;2023-08-24T13:29:25;24.50;67.10
38746;DHT22;24488;0.000;0.000;2023-08-24T13:31:51;24.50;67.10
38746;DHT22;24488;0.000;0.000;2023-08-24T13:34:16;24.40;67.10
38746;DHT22;24488;0.000;0.000;2023-08-24T13:36:42;24.50;67.20
38746;DHT22;24488;0.000;0.000;2023-08-24T13:39:08;24.50;67.10
38746;DHT22;24488;0.000;0.000;2023-08-24T13:41:33;24.50;67.10
38746;DHT22;24488;0.000;0.000;2023-08-24T13:43:59;24.40;67.10
38746;DHT22;24488;0.000;0.000;2023-08-24T13:46:24;24.50;67.20
38746;DHT22;24488;0.000;0.000;2023-08-24T13:48:50;24.40;67.20
38746;DHT22;24488;0.000;0.000;2023-08-24T13:51:15;24.50;67.20
38746;DHT22;24488;0.000;0.000;2023-08-24T13:53:41;24.50;67.30
38746;DHT22;24488;0.000;0.000;2023-08-24T13:56:06;24.50;67.10
38746;DHT22;24488;0.000;0.000;2023-08-24T13:58:32;24.50;67.20
38746;DHT22;24488;0.000;0.000;2023-08-24T14:00:58;24.50;67.20
38746;DHT22;24488;0.000;0.000;2023-08-24T14:03:23;24.50;67.20
38746;DHT22;24488;0.000;0.000;2023-08-24T14:05:49;24.50;67.20
38746;DHT22;24488;0.000;0.000;2023-08-24T14:08:17;24.50;67.30
38746;DHT22;24488;0.000;0.000;2023-08-24T14:10:43;24.70;67.30
38746;DHT22;24488;0.000;0.000;2023-08-24T14:13:08;24.40;67.10
38746;DHT22;24488;0.000;0.000;2023-08-24T14:15:34;24.50;67.20
38746;DHT22;24488;0.000;0.000;2023-08-24T14:18:00;24.50;67.20
38746;DHT22;24488;0.000;0.000;2023-08-24T14:20:25;24.60;67.30
38746;DHT22;24488;0.000;0.000;2023-08-24T14:22:52;24.40;67.10
38746;DHT22;24488;0.000;0.000;2023-08-24T14:25:18;24.50;67.20
38746;DHT22;24488;0.000;0.000;2023-08-24T14:27:44;24.60;67.20
38746;DHT22;24488;0.000;0.000;2023-08-24T14:30:09;24.60;67.20
38746;DHT22;24488;0.000;0.000;2023-08-24T14:32:35;24.50;67.10
38746;DHT22;24488;0.000;0.000;2023-08-24T14:35:01;24.50;67.20
38746;DHT22;24488;0.000;0.000;2023-08-24T14:37:29;24.50;67.20
38746;DHT22;24488;0.000;0.000;2023-08-24T14:39:55;24.50;67.20
38746;DHT22;24488;0.000;0.000;2023-08-24T14:42:21;24.50;67.30
38746;DHT22;24488;0.000;0.000;2023-08-24T14:44:46;24.50;67.30
38746;DHT22;24488;0.000;0.000;2023-08-24T14:47:12;24.50;67.20
38746;DHT22;24488;0.000;0.000;2023-08-24T14:49:38;24.50;67.20
38746;DHT22;24488;0.000;0.000;2023-08-24T14:52:03;24.60;67.20
38746;DHT22;24488;0.000;0.000;2023-08-24T14:54:29;24.50;67.30
38746;DHT22;24488;0.000;0.000;2023-08-24T14:56:54;24.40;67.10
38746;DHT22;24488;0.000;0.000;2023-08-24T14:59:21;24.50;67.20
38746;DHT22;24488;0.000;0.000;2023-08-24T15:01:47;24.70;67.30
38746;DHT22;24488;0.000;0.000;2023-08-24T15:04:13;24.70;67.30
38746;DHT22;24488;0.000;0.000;2023-08-24T15:06:38;24.50;67.30
38746;DHT22;24488;0.000;0.000;2023-08-24T15:09:04;24.50;67.60
38746;DHT22;24488;0.000;0.000;2023-08-24T15:11:30;24.40;67.10
38746;DHT22;24488;0.000;0.000;2023-08-24T15:13:55;24.50;67.20
38746;DHT22;24488;0.000;0.000;2023-08-24T15:16:21;24.50;67.30
38746;DHT22;24488;0.000;0.000;2023-08-24T15:18:46;24.50;67.20
38746;DHT22;24488;0.000;0.000;2023-08-24T15:21:12;24.50;67.30
38746;DHT22;24488;0.000;0.000;2023-08-24T15:23:40;24.50;67.20
38746;DHT22;24488;0.000;0.000;2023-08-24T15:26:05;24.50;67.30
38746;DHT22;24488;0.000;0.000;2023-08-24T15:28:35;24.30;67.10
38746;DHT22;24488;0.000;0.000;2023-08-24T15:31:02;24.50;67.20
38746;DHT22;24488;0.000;0.000;2023-08-24T15:33:27;24.60;67.20
38746;DHT22;24488;0.000;0.000;2023-08-24T15:35:53;24.50;67.30
38746;DHT22;24488;0.000;0.000;2023-08-24T15:38:18;24.50;67.20
38746;DHT22;24488;0.000;0.000;2023-08-24T15:40:50;24.40;67.10
38746;DHT22;24488;0.000;0.000;2023-08-24T15:43:17;24.40;67.20
38746;DHT22;24488;0.000;0.000;2023-08-24T15:45:43;24.50;67.20
38746;DHT22;24488;0.000;0.000;2023-08-24T15:48:08;24.60;67.30
38746;DHT22;24488;0.000;0.000;2023-08-24T15:50:34;24.50;67.30
38746;DHT22;24488;0.000;0.000;2023-08-24T15:52:59;24.50;67.30
38746;DHT22;24488;0.000;0.000;2023-08-24T15:55:29;24.40;67.20
38746;DHT22;24488;0.000;0.000;2023-08-24T15:58:00;24.50;67.20
38746;DHT22;24488;0.000;0.000;2023-08-24T16:00:27;24.50;67.20
38746;DHT22;24488;0.000;0.000;2023-08-24T16:02:53;24.60;67.30